Terminal Aerodrome Forecast
Issued by NWS

Home | Current Version | Previous Version | Text Only | Print | Product List | Glossary On
Versions: 1 2 3 4 5 6 7 8 9 10 11 12 13 14 15 16 17 18 19 20 21 22 23 24 25 26 27 28 29 30 31 32 33 34 35 36 37 38 39 40 41 42 43
469
FTUS45 KBOU 012329
TAFAPA
TAF
KAPA 012329Z 0200/0224 09006KT P6SM FEW090 SCT150
     FM020200 13007KT P6SM SCT090 BKN150
     FM020800 17005KT P6SM SCT070 BKN090
     FM021200 13005KT P6SM SCT035 BKN050 OVC080
     FM021500 11006KT P6SM VCSH SCT035 OVC050
     FM022100 09007KT P6SM VCSH BKN050 OVC090=

USA.gov is the U.S. government's official web portal to all federal, state and local government web resources and services.